sensor_id;sensor_type;location;lat;lon;timestamp;temperature;humidity
75685;HTU21D;64298;46.050;38.164;2022-12-07T00:01:40;-3.25;58.76
75685;HTU21D;64298;46.050;38.164;2022-12-07T00:04:25;-3.24;58.75
75685;HTU21D;64298;46.050;38.164;2022-12-07T00:06:52;-3.26;58.73
75685;HTU21D;64298;46.050;38.164;2022-12-07T00:09:19;-3.30;58.79
75685;HTU21D;64298;46.050;38.164;2022-12-07T00:11:48;-3.35;58.83
75685;HTU21D;64298;46.050;38.164;2022-12-07T00:14:15;-3.39;58.84
75685;HTU21D;64298;46.050;38.164;2022-12-07T00:16:43;-3.39;58.93
75685;HTU21D;64298;46.050;38.164;2022-12-07T00:19:11;-3.40;59.07
75685;HTU21D;64298;46.050;38.164;2022-12-07T00:21:56;-3.42;59.01
75685;HTU21D;64298;46.050;38.164;2022-12-07T00:24:22;-3.39;59.05
75685;HTU21D;64298;46.050;38.164;2022-12-07T00:26:48;-3.36;59.07
75685;HTU21D;64298;46.050;38.164;2022-12-07T00:29:18;-3.34;59.09
75685;HTU21D;64298;46.050;38.164;2022-12-07T00:31:44;-3.34;59.07
75685;HTU21D;64298;46.050;38.164;2022-12-07T00:34:14;-3.34;59.09
75685;HTU21D;64298;46.050;38.164;2022-12-07T00:36:41;-3.37;59.00
75685;HTU21D;64298;46.050;38.164;2022-12-07T00:39:07;-3.37;59.06
75685;HTU21D;64298;46.050;38.164;2022-12-07T00:41:33;-3.37;59.14
75685;HTU21D;64298;46.050;38.164;2022-12-07T00:43:59;-3.41;59.28
75685;HTU21D;64298;46.050;38.164;2022-12-07T00:46:25;-3.43;59.32
75685;HTU21D;64298;46.050;38.164;2022-12-07T00:48:52;-3.43;59.32
75685;HTU21D;64298;46.050;38.164;2022-12-07T00:51:21;-3.43;59.36
75685;HTU21D;64298;46.050;38.164;2022-12-07T00:53:48;-3.43;59.44
75685;HTU21D;64298;46.050;38.164;2022-12-07T00:56:16;-3.42;59.45
75685;HTU21D;64298;46.050;38.164;2022-12-07T00:58:43;-3.41;59.49
75685;HTU21D;64298;46.050;38.164;2022-12-07T01:01:10;-3.41;59.47
75685;HTU21D;64298;46.050;38.164;2022-12-07T01:03:37;-3.39;59.48
75685;HTU21D;64298;46.050;38.164;2022-12-07T01:06:23;-3.38;59.48
75685;HTU21D;64298;46.050;38.164;2022-12-07T01:08:50;-3.38;59.45
75685;HTU21D;64298;46.050;38.164;2022-12-07T01:11:19;-3.39;59.40
75685;HTU21D;64298;46.050;38.164;2022-12-07T01:13:45;-3.42;59.49
75685;HTU21D;64298;46.050;38.164;2022-12-07T01:16:15;-3.41;59.51
75685;HTU21D;64298;46.050;38.164;2022-12-07T01:18:41;-3.45;59.57
75685;HTU21D;64298;46.050;38.164;2022-12-07T01:24:36;-3.48;59.73
75685;HTU21D;64298;46.050;38.164;2022-12-07T01:27:02;-3.50;59.77
75685;HTU21D;64298;46.050;38.164;2022-12-07T01:29:28;-3.50;59.84
75685;HTU21D;64298;46.050;38.164;2022-12-07T01:31:54;-3.52;59.97
75685;HTU21D;64298;46.050;38.164;2022-12-07T01:34:20;-3.51;60.06
75685;HTU21D;64298;46.050;38.164;2022-12-07T01:36:46;-3.48;60.07
75685;HTU21D;64298;46.050;38.164;2022-12-07T01:39:12;-3.46;60.09
75685;HTU21D;64298;46.050;38.164;2022-12-07T01:41:39;-3.46;60.10
75685;HTU21D;64298;46.050;38.164;2022-12-07T01:44:07;-3.43;60.10
75685;HTU21D;64298;46.050;38.164;2022-12-07T01:46:34;-3.42;60.19
75685;HTU21D;64298;46.050;38.164;2022-12-07T01:49:00;-3.43;60.25
75685;HTU21D;64298;46.050;38.164;2022-12-07T01:51:27;-3.41;60.28
75685;HTU21D;64298;46.050;38.164;2022-12-07T01:53:54;-3.45;60.36
75685;HTU21D;64298;46.050;38.164;2022-12-07T01:56:23;-3.43;60.50
75685;HTU21D;64298;46.050;38.164;2022-12-07T01:58:51;-3.46;60.56
75685;HTU21D;64298;46.050;38.164;2022-12-07T02:01:17;-3.43;60.68
75685;HTU21D;64298;46.050;38.164;2022-12-07T02:03:44;-3.42;60.80
75685;HTU21D;64298;46.050;38.164;2022-12-07T02:06:13;-3.42;60.87
75685;HTU21D;64298;46.050;38.164;2022-12-07T02:08:41;-3.40;60.89
75685;HTU21D;64298;46.050;38.164;2022-12-07T02:11:08;-3.40;60.93
75685;HTU21D;64298;46.050;38.164;2022-12-07T02:13:53;-3.41;61.07
75685;HTU21D;64298;46.050;38.164;2022-12-07T02:21:39;-3.40;61.39
75685;HTU21D;64298;46.050;38.164;2022-12-07T02:29:45;-3.34;61.41
75685;HTU21D;64298;46.050;38.164;2022-12-07T02:32:18;-3.34;61.47
75685;HTU21D;64298;46.050;38.164;2022-12-07T02:35:08;-3.31;61.46
75685;HTU21D;64298;46.050;38.164;2022-12-07T02:40:18;-3.30;61.49
75685;HTU21D;64298;46.050;38.164;2022-12-07T02:42:49;-3.26;61.49
75685;HTU21D;64298;46.050;38.164;2022-12-07T02:45:20;-3.24;61.44
75685;HTU21D;64298;46.050;38.164;2022-12-07T02:47:48;-3.22;61.44
75685;HTU21D;64298;46.050;38.164;2022-12-07T02:50:19;-3.19;61.37
75685;HTU21D;64298;46.050;38.164;2022-12-07T02:52:45;-3.20;61.41
75685;HTU21D;64298;46.050;38.164;2022-12-07T02:55:13;-3.17;61.41
75685;HTU21D;64298;46.050;38.164;2022-12-07T03:00:18;-3.17;61.47
75685;HTU21D;64298;46.050;38.164;2022-12-07T03:02:55;-3.19;61.50
75685;HTU21D;64298;46.050;38.164;2022-12-07T03:08:40;-3.15;61.56
75685;HTU21D;64298;46.050;38.164;2022-12-07T03:11:29;-3.15;61.59
75685;HTU21D;64298;46.050;38.164;2022-12-07T03:14:05;-3.17;61.61
75685;HTU21D;64298;46.050;38.164;2022-12-07T03:16:47;-3.17;61.76
75685;HTU21D;64298;46.050;38.164;2022-12-07T03:19:19;-3.18;61.76
75685;HTU21D;64298;46.050;38.164;2022-12-07T03:21:54;-3.20;61.72
75685;HTU21D;64298;46.050;38.164;2022-12-07T03:24:25;-3.22;61.71
75685;HTU21D;64298;46.050;38.164;2022-12-07T03:27:18;-3.20;61.85
75685;HTU21D;64298;46.050;38.164;2022-12-07T03:30:03;-3.16;61.89
75685;HTU21D;64298;46.050;38.164;2022-12-07T03:32:37;-3.13;61.95
75685;HTU21D;64298;46.050;38.164;2022-12-07T03:35:14;-3.10;61.86
75685;HTU21D;64298;46.050;38.164;2022-12-07T03:37:58;-3.08;61.92
75685;HTU21D;64298;46.050;38.164;2022-12-07T03:40:34;-3.05;61.94
75685;HTU21D;64298;46.050;38.164;2022-12-07T03:43:01;-3.03;61.95
75685;HTU21D;64298;46.050;38.164;2022-12-07T03:45:43;-2.98;61.90
75685;HTU21D;64298;46.050;38.164;2022-12-07T03:51:01;-2.94;61.94
75685;HTU21D;64298;46.050;38.164;2022-12-07T03:53:43;-2.92;61.98
75685;HTU21D;64298;46.050;38.164;2022-12-07T03:56:11;-2.90;61.95
75685;HTU21D;64298;46.050;38.164;2022-12-07T03:58:38;-2.91;61.99
75685;HTU21D;64298;46.050;38.164;2022-12-07T04:01:23;-2.87;61.97
75685;HTU21D;64298;46.050;38.164;2022-12-07T04:03:50;-2.84;61.98
75685;HTU21D;64298;46.050;38.164;2022-12-07T04:06:16;-2.84;61.92
75685;HTU21D;64298;46.050;38.164;2022-12-07T04:08:42;-2.86;62.01
75685;HTU21D;64298;46.050;38.164;2022-12-07T04:11:07;-2.86;62.08
75685;HTU21D;64298;46.050;38.164;2022-12-07T04:13:33;-2.88;62.11
75685;HTU21D;64298;46.050;38.164;2022-12-07T04:16:20;-2.87;62.15
75685;HTU21D;64298;46.050;38.164;2022-12-07T04:18:46;-2.86;62.16
75685;HTU21D;64298;46.050;38.164;2022-12-07T04:21:12;-2.86;62.28
75685;HTU21D;64298;46.050;38.164;2022-12-07T04:23:38;-2.88;62.38
75685;HTU21D;64298;46.050;38.164;2022-12-07T04:26:22;-2.89;62.52
75685;HTU21D;64298;46.050;38.164;2022-12-07T04:28:48;-2.89;62.58
75685;HTU21D;64298;46.050;38.164;2022-12-07T04:31:14;-2.86;62.69
75685;HTU21D;64298;46.050;38.164;2022-12-07T04:33:40;-2.83;62.96
75685;HTU21D;64298;46.050;38.164;2022-12-07T04:36:06;-2.81;63.04
75685;HTU21D;64298;46.050;38.164;2022-12-07T04:38:32;-2.78;63.07
75685;HTU21D;64298;46.050;38.164;2022-12-07T04:40:58;-2.77;63.25
75685;HTU21D;64298;46.050;38.164;2022-12-07T04:43:29;-2.76;63.51
75685;HTU21D;64298;46.050;38.164;2022-12-07T04:45:55;-2.74;63.50
75685;HTU21D;64298;46.050;38.164;2022-12-07T04:48:21;-2.73;63.50
75685;HTU21D;64298;46.050;38.164;2022-12-07T04:50:48;-2.73;63.92
75685;HTU21D;64298;46.050;38.164;2022-12-07T04:53:15;-2.74;64.08
75685;HTU21D;64298;46.050;38.164;2022-12-07T04:55:41;-2.72;64.06
75685;HTU21D;64298;46.050;38.164;2022-12-07T04:58:07;-2.72;64.15
75685;HTU21D;64298;46.050;38.164;2022-12-07T05:00:33;-2.71;64.21
75685;HTU21D;64298;46.050;38.164;2022-12-07T05:02:59;-2.69;64.24
75685;HTU21D;64298;46.050;38.164;2022-12-07T05:05:25;-2.68;64.32
75685;HTU21D;64298;46.050;38.164;2022-12-07T05:07:51;-2.64;64.40
75685;HTU21D;64298;46.050;38.164;2022-12-07T05:10:17;-2.64;64.44
75685;HTU21D;64298;46.050;38.164;2022-12-07T05:12:43;-2.63;64.61
75685;HTU21D;64298;46.050;38.164;2022-12-07T05:15:09;-2.63;64.78
75685;HTU21D;64298;46.050;38.164;2022-12-07T05:17:35;-2.67;64.85
75685;HTU21D;64298;46.050;38.164;2022-12-07T05:20:01;-2.69;64.99
75685;HTU21D;64298;46.050;38.164;2022-12-07T05:22:27;-2.71;65.05
75685;HTU21D;64298;46.050;38.164;2022-12-07T05:24:54;-2.67;64.96
75685;HTU21D;64298;46.050;38.164;2022-12-07T05:27:20;-2.63;64.94
75685;HTU21D;64298;46.050;38.164;2022-12-07T05:29:46;-2.61;64.91
75685;HTU21D;64298;46.050;38.164;2022-12-07T05:32:12;-2.61;65.05
75685;HTU21D;64298;46.050;38.164;2022-12-07T05:34:38;-2.59;65.01
75685;HTU21D;64298;46.050;38.164;2022-12-07T05:37:04;-2.56;65.15
75685;HTU21D;64298;46.050;38.164;2022-12-07T05:39:30;-2.53;65.08
75685;HTU21D;64298;46.050;38.164;2022-12-07T05:41:56;-2.52;65.05
75685;HTU21D;64298;46.050;38.164;2022-12-07T05:44:42;-2.50;64.92
75685;HTU21D;64298;46.050;38.164;2022-12-07T05:47:08;-2.47;65.15
75685;HTU21D;64298;46.050;38.164;2022-12-07T05:49:34;-2.47;65.40
75685;HTU21D;64298;46.050;38.164;2022-12-07T05:52:00;-2.50;65.87
75685;HTU21D;64298;46.050;38.164;2022-12-07T05:54:27;-2.46;65.98
75685;HTU21D;64298;46.050;38.164;2022-12-07T05:56:52;-2.46;66.50
75685;HTU21D;64298;46.050;38.164;2022-12-07T05:59:18;-2.43;66.40
75685;HTU21D;64298;46.050;38.164;2022-12-07T06:01:55;-2.38;66.46
75685;HTU21D;64298;46.050;38.164;2022-12-07T06:04:22;-2.35;66.54
75685;HTU21D;64298;46.050;38.164;2022-12-07T06:07:07;-2.34;66.62
75685;HTU21D;64298;46.050;38.164;2022-12-07T06:09:34;-2.34;66.64
75685;HTU21D;64298;46.050;38.164;2022-12-07T06:12:00;-2.34;66.62
75685;HTU21D;64298;46.050;38.164;2022-12-07T06:14:45;-2.31;66.69
75685;HTU21D;64298;46.050;38.164;2022-12-07T06:17:11;-2.28;66.69
75685;HTU21D;64298;46.050;38.164;2022-12-07T06:19:38;-2.24;66.69
75685;HTU21D;64298;46.050;38.164;2022-12-07T06:22:04;-2.20;66.61
75685;HTU21D;64298;46.050;38.164;2022-12-07T06:24:31;-2.17;66.91
75685;HTU21D;64298;46.050;38.164;2022-12-07T06:26:57;-2.15;66.79
75685;HTU21D;64298;46.050;38.164;2022-12-07T06:29:23;-2.10;66.74
75685;HTU21D;64298;46.050;38.164;2022-12-07T06:31:50;-2.07;66.72
75685;HTU21D;64298;46.050;38.164;2022-12-07T06:34:18;-2.07;66.77
75685;HTU21D;64298;46.050;38.164;2022-12-07T06:36:44;-2.03;66.68
75685;HTU21D;64298;46.050;38.164;2022-12-07T06:39:11;-2.00;66.78
75685;HTU21D;64298;46.050;38.164;2022-12-07T06:41:37;-1.98;66.81
75685;HTU21D;64298;46.050;38.164;2022-12-07T06:44:05;-1.94;66.80
75685;HTU21D;64298;46.050;38.164;2022-12-07T06:46:31;-1.92;66.94
75685;HTU21D;64298;46.050;38.164;2022-12-07T06:48:58;-1.91;67.04
75685;HTU21D;64298;46.050;38.164;2022-12-07T06:51:24;-1.91;66.99
75685;HTU21D;64298;46.050;38.164;2022-12-07T06:53:50;-1.88;66.94
75685;HTU21D;64298;46.050;38.164;2022-12-07T06:56:16;-1.88;67.09
75685;HTU21D;64298;46.050;38.164;2022-12-07T06:58:42;-1.87;67.01
75685;HTU21D;64298;46.050;38.164;2022-12-07T07:01:12;-1.86;66.93
75685;HTU21D;64298;46.050;38.164;2022-12-07T07:03:39;-1.80;66.86
75685;HTU21D;64298;46.050;38.164;2022-12-07T07:06:06;-1.76;66.76
75685;HTU21D;64298;46.050;38.164;2022-12-07T07:08:34;-1.74;66.72
75685;HTU21D;64298;46.050;38.164;2022-12-07T07:11:00;-1.70;66.67
75685;HTU21D;64298;46.050;38.164;2022-12-07T07:13:27;-1.65;66.59
75685;HTU21D;64298;46.050;38.164;2022-12-07T07:15:53;-1.60;66.56
75685;HTU21D;64298;46.050;38.164;2022-12-07T07:18:19;-1.58;66.50
75685;HTU21D;64298;46.050;38.164;2022-12-07T07:20:45;-1.59;66.62
75685;HTU21D;64298;46.050;38.164;2022-12-07T07:23:11;-1.55;66.55
75685;HTU21D;64298;46.050;38.164;2022-12-07T07:25:38;-1.49;66.53
75685;HTU21D;64298;46.050;38.164;2022-12-07T07:28:04;-1.45;66.52
75685;HTU21D;64298;46.050;38.164;2022-12-07T07:30:30;-1.36;66.43
75685;HTU21D;64298;46.050;38.164;2022-12-07T07:32:58;-1.30;66.38
75685;HTU21D;64298;46.050;38.164;2022-12-07T07:35:25;-1.25;66.43
75685;HTU21D;64298;46.050;38.164;2022-12-07T07:37:51;-1.17;66.30
75685;HTU21D;64298;46.050;38.164;2022-12-07T07:40:17;-1.11;66.10
75685;HTU21D;64298;46.050;38.164;2022-12-07T07:42:43;-1.02;66.03
75685;HTU21D;64298;46.050;38.164;2022-12-07T07:45:09;-0.94;65.86
75685;HTU21D;64298;46.050;38.164;2022-12-07T07:47:35;-0.88;65.78
75685;HTU21D;64298;46.050;38.164;2022-12-07T07:50:02;-0.84;65.75
75685;HTU21D;64298;46.050;38.164;2022-12-07T07:52:28;-0.80;65.73
75685;HTU21D;64298;46.050;38.164;2022-12-07T07:54:54;-0.76;65.62
75685;HTU21D;64298;46.050;38.164;2022-12-07T07:57:20;-0.76;65.61
75685;HTU21D;64298;46.050;38.164;2022-12-07T07:59:46;-0.76;65.70
75685;HTU21D;64298;46.050;38.164;2022-12-07T08:02:16;-0.73;65.68
75685;HTU21D;64298;46.050;38.164;2022-12-07T08:04:43;-0.70;65.75
75685;HTU21D;64298;46.050;38.164;2022-12-07T08:07:09;-0.69;65.74
75685;HTU21D;64298;46.050;38.164;2022-12-07T08:09:35;-0.70;65.74
75685;HTU21D;64298;46.050;38.164;2022-12-07T08:12:01;-0.69;65.84
75685;HTU21D;64298;46.050;38.164;2022-12-07T08:14:27;-0.65;65.86
75685;HTU21D;64298;46.050;38.164;2022-12-07T08:16:54;-0.55;65.82
75685;HTU21D;64298;46.050;38.164;2022-12-07T08:19:20;-0.46;65.65
75685;HTU21D;64298;46.050;38.164;2022-12-07T08:21:46;-0.41;65.57
75685;HTU21D;64298;46.050;38.164;2022-12-07T08:24:14;-0.36;65.52
75685;HTU21D;64298;46.050;38.164;2022-12-07T08:26:41;-0.31;65.54
75685;HTU21D;64298;46.050;38.164;2022-12-07T08:29:07;-0.28;65.51
75685;HTU21D;64298;46.050;38.164;2022-12-07T08:31:33;-0.26;65.50
75685;HTU21D;64298;46.050;38.164;2022-12-07T08:33:59;-0.24;65.48
75685;HTU21D;64298;46.050;38.164;2022-12-07T08:36:26;-0.23;65.53
75685;HTU21D;64298;46.050;38.164;2022-12-07T08:38:51;-0.17;65.66
75685;HTU21D;64298;46.050;38.164;2022-12-07T08:41:18;-0.19;65.73
75685;HTU21D;64298;46.050;38.164;2022-12-07T08:43:44;-0.17;65.86
75685;HTU21D;64298;46.050;38.164;2022-12-07T08:46:20;-0.15;65.91
75685;HTU21D;64298;46.050;38.164;2022-12-07T08:48:54;-0.10;65.95
75685;HTU21D;64298;46.050;38.164;2022-12-07T08:51:22;-0.05;65.95
75685;HTU21D;64298;46.050;38.164;2022-12-07T08:53:50;0.01;65.99
75685;HTU21D;64298;46.050;38.164;2022-12-07T08:56:17;0.04;66.20
75685;HTU21D;64298;46.050;38.164;2022-12-07T08:58:43;0.08;66.63
75685;HTU21D;64298;46.050;38.164;2022-12-07T09:01:10;0.12;66.85
75685;HTU21D;64298;46.050;38.164;2022-12-07T09:03:36;0.18;66.88
75685;HTU21D;64298;46.050;38.164;2022-12-07T09:06:02;0.25;66.72
75685;HTU21D;64298;46.050;38.164;2022-12-07T09:08:38;0.30;66.82
75685;HTU21D;64298;46.050;38.164;2022-12-07T09:11:05;0.33;66.58
75685;HTU21D;64298;46.050;38.164;2022-12-07T09:13:31;0.35;66.43
75685;HTU21D;64298;46.050;38.164;2022-12-07T09:15:57;0.37;66.32
75685;HTU21D;64298;46.050;38.164;2022-12-07T09:18:23;0.37;66.14
75685;HTU21D;64298;46.050;38.164;2022-12-07T09:21:09;0.38;66.17
75685;HTU21D;64298;46.050;38.164;2022-12-07T09:23:35;0.43;66.15
75685;HTU21D;64298;46.050;38.164;2022-12-07T09:26:02;0.42;66.11
75685;HTU21D;64298;46.050;38.164;2022-12-07T09:28:30;0.40;65.95
75685;HTU21D;64298;46.050;38.164;2022-12-07T09:30:56;0.42;65.94
75685;HTU21D;64298;46.050;38.164;2022-12-07T09:33:23;0.39;65.86
75685;HTU21D;64298;46.050;38.164;2022-12-07T09:35:50;0.43;65.91
75685;HTU21D;64298;46.050;38.164;2022-12-07T09:38:18;0.49;65.93
75685;HTU21D;64298;46.050;38.164;2022-12-07T09:40:44;0.58;65.85
75685;HTU21D;64298;46.050;38.164;2022-12-07T09:43:22;0.71;65.72
75685;HTU21D;64298;46.050;38.164;2022-12-07T09:45:54;0.84;65.55
75685;HTU21D;64298;46.050;38.164;2022-12-07T09:48:30;0.91;65.18
75685;HTU21D;64298;46.050;38.164;2022-12-07T09:50:59;0.95;65.16
75685;HTU21D;64298;46.050;38.164;2022-12-07T09:53:36;0.95;65.04
75685;HTU21D;64298;46.050;38.164;2022-12-07T09:56:03;0.91;65.15
75685;HTU21D;64298;46.050;38.164;2022-12-07T09:58:31;0.92;65.29
75685;HTU21D;64298;46.050;38.164;2022-12-07T10:01:05;0.95;65.24
75685;HTU21D;64298;46.050;38.164;2022-12-07T10:04:17;0.95;65.39
75685;HTU21D;64298;46.050;38.164;2022-12-07T10:06:44;0.96;65.72
75685;HTU21D;64298;46.050;38.164;2022-12-07T10:09:12;0.96;66.16
75685;HTU21D;64298;46.050;38.164;2022-12-07T10:11:58;0.99;66.46
75685;HTU21D;64298;46.050;38.164;2022-12-07T10:14:26;1.02;66.66
75685;HTU21D;64298;46.050;38.164;2022-12-07T10:16:52;1.03;66.75
75685;HTU21D;64298;46.050;38.164;2022-12-07T10:19:20;1.04;66.65
75685;HTU21D;64298;46.050;38.164;2022-12-07T10:22:04;1.05;66.75
75685;HTU21D;64298;46.050;38.164;2022-12-07T10:24:31;1.04;66.89
75685;HTU21D;64298;46.050;38.164;2022-12-07T10:26:57;1.06;67.10
75685;HTU21D;64298;46.050;38.164;2022-12-07T10:29:36;1.04;67.29
75685;HTU21D;64298;46.050;38.164;2022-12-07T10:34:33;1.09;67.85
75685;HTU21D;64298;46.050;38.164;2022-12-07T10:37:18;1.19;68.04
75685;HTU21D;64298;46.050;38.164;2022-12-07T10:39:46;1.33;68.50
75685;HTU21D;64298;46.050;38.164;2022-12-07T10:42:23;1.42;68.65
75685;HTU21D;64298;46.050;38.164;2022-12-07T10:45:07;1.42;69.10
75685;HTU21D;64298;46.050;38.164;2022-12-07T10:47:52;1.46;69.23
75685;HTU21D;64298;46.050;38.164;2022-12-07T10:56:17;1.55;69.07
75685;HTU21D;64298;46.050;38.164;2022-12-07T11:01:50;1.71;69.06
75685;HTU21D;64298;46.050;38.164;2022-12-07T11:28:44;2.19;67.51
75685;HTU21D;64298;46.050;38.164;2022-12-07T11:33:53;2.12;67.50
75685;HTU21D;64298;46.050;38.164;2022-12-07T11:36:37;2.11;67.62
75685;HTU21D;64298;46.050;38.164;2022-12-07T11:42:08;2.10;67.75
75685;HTU21D;64298;46.050;38.164;2022-12-07T11:47:45;2.07;67.84
75685;HTU21D;64298;46.050;38.164;2022-12-07T11:50:31;2.09;67.86
75685;HTU21D;64298;46.050;38.164;2022-12-07T11:58:58;2.10;68.14
75685;HTU21D;64298;46.050;38.164;2022-12-07T12:01:42;2.12;68.14
75685;HTU21D;64298;46.050;38.164;2022-12-07T12:06:39;2.14;68.26
75685;HTU21D;64298;46.050;38.164;2022-12-07T12:09:23;2.17;68.28
75685;HTU21D;64298;46.050;38.164;2022-12-07T12:22:40;2.21;68.39
75685;HTU21D;64298;46.050;38.164;2022-12-07T12:25:28;2.21;68.40
75685;HTU21D;64298;46.050;38.164;2022-12-07T12:27:58;2.21;68.48
75685;HTU21D;64298;46.050;38.164;2022-12-07T12:30:37;2.20;68.50
75685;HTU21D;64298;46.050;38.164;2022-12-07T12:33:21;2.21;68.61
75685;HTU21D;64298;46.050;38.164;2022-12-07T12:50:33;2.09;69.03
75685;HTU21D;64298;46.050;38.164;2022-12-07T12:53:25;2.10;68.99
75685;HTU21D;64298;46.050;38.164;2022-12-07T12:58:39;2.09;69.01
75685;HTU21D;64298;46.050;38.164;2022-12-07T13:01:41;2.07;69.03
75685;HTU21D;64298;46.050;38.164;2022-12-07T13:04:48;2.05;69.07
75685;HTU21D;64298;46.050;38.164;2022-12-07T13:12:59;1.99;69.20
75685;HTU21D;64298;46.050;38.164;2022-12-07T13:15:38;1.98;69.26
75685;HTU21D;64298;46.050;38.164;2022-12-07T13:23:20;1.92;69.35
75685;HTU21D;64298;46.050;38.164;2022-12-07T13:28:38;1.86;69.45
75685;HTU21D;64298;46.050;38.164;2022-12-07T13:31:14;1.85;69.44
75685;HTU21D;64298;46.050;38.164;2022-12-07T13:33:44;1.82;69.42
75685;HTU21D;64298;46.050;38.164;2022-12-07T13:36:25;1.82;69.45
75685;HTU21D;64298;46.050;38.164;2022-12-07T13:38:57;1.83;69.41
75685;HTU21D;64298;46.050;38.164;2022-12-07T13:41:30;1.80;69.47
75685;HTU21D;64298;46.050;38.164;2022-12-07T13:44:16;1.79;69.45
75685;HTU21D;64298;46.050;38.164;2022-12-07T13:47:12;1.80;69.46
75685;HTU21D;64298;46.050;38.164;2022-12-07T13:49:50;1.80;69.52
75685;HTU21D;64298;46.050;38.164;2022-12-07T13:52:18;1.78;69.58
75685;HTU21D;64298;46.050;38.164;2022-12-07T13:55:14;1.78;69.68
75685;HTU21D;64298;46.050;38.164;2022-12-07T13:57:59;1.79;69.74
75685;HTU21D;64298;46.050;38.164;2022-12-07T14:00:28;1.77;69.78
75685;HTU21D;64298;46.050;38.164;2022-12-07T14:05:28;1.77;69.95
75685;HTU21D;64298;46.050;38.164;2022-12-07T14:08:02;1.78;69.97
75685;HTU21D;64298;46.050;38.164;2022-12-07T14:10:38;1.77;70.11
75685;HTU21D;64298;46.050;38.164;2022-12-07T14:18:50;1.73;70.45
75685;HTU21D;64298;46.050;38.164;2022-12-07T14:21:19;1.71;70.59
75685;HTU21D;64298;46.050;38.164;2022-12-07T14:26:38;1.68;70.74
75685;HTU21D;64298;46.050;38.164;2022-12-07T14:31:51;1.66;71.00
75685;HTU21D;64298;46.050;38.164;2022-12-07T14:34:20;1.62;71.16
75685;HTU21D;64298;46.050;38.164;2022-12-07T14:36:47;1.61;71.49
75685;HTU21D;64298;46.050;38.164;2022-12-07T14:39:13;1.60;71.64
75685;HTU21D;64298;46.050;38.164;2022-12-07T14:41:39;1.61;71.67
75685;HTU21D;64298;46.050;38.164;2022-12-07T14:44:22;1.56;71.93
75685;HTU21D;64298;46.050;38.164;2022-12-07T14:46:50;1.56;71.90
75685;HTU21D;64298;46.050;38.164;2022-12-07T14:49:16;1.54;72.15
75685;HTU21D;64298;46.050;38.164;2022-12-07T14:51:44;1.53;72.29
75685;HTU21D;64298;46.050;38.164;2022-12-07T14:54:17;1.48;72.47
75685;HTU21D;64298;46.050;38.164;2022-12-07T14:56:45;1.47;72.64
75685;HTU21D;64298;46.050;38.164;2022-12-07T14:59:15;1.48;72.55
75685;HTU21D;64298;46.050;38.164;2022-12-07T15:01:41;1.47;72.64
75685;HTU21D;64298;46.050;38.164;2022-12-07T15:04:07;1.45;72.78
75685;HTU21D;64298;46.050;38.164;2022-12-07T15:06:59;1.47;72.60
75685;HTU21D;64298;46.050;38.164;2022-12-07T15:09:25;1.47;72.58
75685;HTU21D;64298;46.050;38.164;2022-12-07T15:11:51;1.47;72.58
75685;HTU21D;64298;46.050;38.164;2022-12-07T15:14:17;1.45;72.74
75685;HTU21D;64298;46.050;38.164;2022-12-07T15:16:43;1.42;72.83
75685;HTU21D;64298;46.050;38.164;2022-12-07T15:19:13;1.41;72.73
75685;HTU21D;64298;46.050;38.164;2022-12-07T15:21:39;1.41;72.73
75685;HTU21D;64298;46.050;38.164;2022-12-07T15:24:06;1.40;72.78
75685;HTU21D;64298;46.050;38.164;2022-12-07T15:26:32;1.40;72.78
75685;HTU21D;64298;46.050;38.164;2022-12-07T15:28:58;1.41;72.66
75685;HTU21D;64298;46.050;38.164;2022-12-07T15:31:24;1.41;72.65
75685;HTU21D;64298;46.050;38.164;2022-12-07T15:33:50;1.40;72.64
75685;HTU21D;64298;46.050;38.164;2022-12-07T15:36:21;1.43;72.60
75685;HTU21D;64298;46.050;38.164;2022-12-07T15:38:48;1.42;72.50
75685;HTU21D;64298;46.050;38.164;2022-12-07T15:41:14;1.45;72.42
75685;HTU21D;64298;46.050;38.164;2022-12-07T15:43:40;1.45;72.39
75685;HTU21D;64298;46.050;38.164;2022-12-07T15:46:32;1.46;72.35
75685;HTU21D;64298;46.050;38.164;2022-12-07T15:49:00;1.43;72.50
75685;HTU21D;64298;46.050;38.164;2022-12-07T15:51:26;1.45;72.55
75685;HTU21D;64298;46.050;38.164;2022-12-07T15:53:52;1.42;72.67
75685;HTU21D;64298;46.050;38.164;2022-12-07T15:56:19;1.43;72.65
75685;HTU21D;64298;46.050;38.164;2022-12-07T15:58:45;1.43;72.69
75685;HTU21D;64298;46.050;38.164;2022-12-07T16:01:15;1.43;72.80
75685;HTU21D;64298;46.050;38.164;2022-12-07T16:03:42;1.43;72.77
75685;HTU21D;64298;46.050;38.164;2022-12-07T16:06:08;1.46;72.75
75685;HTU21D;64298;46.050;38.164;2022-12-07T16:08:35;1.45;72.78
75685;HTU21D;64298;46.050;38.164;2022-12-07T16:11:05;1.43;72.87
75685;HTU21D;64298;46.050;38.164;2022-12-07T16:13:33;1.45;72.88
75685;HTU21D;64298;46.050;38.164;2022-12-07T16:16:03;1.45;72.89
75685;HTU21D;64298;46.050;38.164;2022-12-07T16:18:31;1.45;72.96
75685;HTU21D;64298;46.050;38.164;2022-12-07T16:20:57;1.43;72.98
75685;HTU21D;64298;46.050;38.164;2022-12-07T16:23:23;1.45;72.99
75685;HTU21D;64298;46.050;38.164;2022-12-07T16:25:49;1.46;72.98
75685;HTU21D;64298;46.050;38.164;2022-12-07T16:28:15;1.45;72.98
75685;HTU21D;64298;46.050;38.164;2022-12-07T16:30:41;1.46;72.96
75685;HTU21D;64298;46.050;38.164;2022-12-07T16:33:07;1.45;72.94
75685;HTU21D;64298;46.050;38.164;2022-12-07T16:35:33;1.47;72.96
75685;HTU21D;64298;46.050;38.164;2022-12-07T16:37:59;1.47;72.99
75685;HTU21D;64298;46.050;38.164;2022-12-07T16:40:25;1.46;73.01
75685;HTU21D;64298;46.050;38.164;2022-12-07T16:42:51;1.46;73.03
75685;HTU21D;64298;46.050;38.164;2022-12-07T16:45:18;1.47;72.99
75685;HTU21D;64298;46.050;38.164;2022-12-07T16:47:44;1.46;73.04
75685;HTU21D;64298;46.050;38.164;2022-12-07T16:50:10;1.43;73.12
75685;HTU21D;64298;46.050;38.164;2022-12-07T16:52:36;1.42;73.19
75685;HTU21D;64298;46.050;38.164;2022-12-07T16:55:02;1.41;73.15
75685;HTU21D;64298;46.050;38.164;2022-12-07T16:57:30;1.41;73.09
75685;HTU21D;64298;46.050;38.164;2022-12-07T16:59:56;1.40;73.18
75685;HTU21D;64298;46.050;38.164;2022-12-07T17:02:22;1.39;73.17
75685;HTU21D;64298;46.050;38.164;2022-12-07T17:04:48;1.39;73.22
75685;HTU21D;64298;46.050;38.164;2022-12-07T17:07:14;1.40;73.15
75685;HTU21D;64298;46.050;38.164;2022-12-07T17:09:40;1.39;73.13
75685;HTU21D;64298;46.050;38.164;2022-12-07T17:12:07;1.40;73.13
75685;HTU21D;64298;46.050;38.164;2022-12-07T17:14:33;1.39;73.18
75685;HTU21D;64298;46.050;38.164;2022-12-07T17:17:18;1.39;73.16
75685;HTU21D;64298;46.050;38.164;2022-12-07T17:19:44;1.39;73.16
75685;HTU21D;64298;46.050;38.164;2022-12-07T17:22:10;1.39;73.13
75685;HTU21D;64298;46.050;38.164;2022-12-07T17:24:39;1.39;73.25
75685;HTU21D;64298;46.050;38.164;2022-12-07T17:27:05;1.39;73.19
75685;HTU21D;64298;46.050;38.164;2022-12-07T17:29:31;1.39;73.16
75685;HTU21D;64298;46.050;38.164;2022-12-07T17:31:57;1.39;73.12
75685;HTU21D;64298;46.050;38.164;2022-12-07T17:34:23;1.41;73.11
75685;HTU21D;64298;46.050;38.164;2022-12-07T17:36:49;1.42;73.12
75685;HTU21D;64298;46.050;38.164;2022-12-07T17:39:17;1.43;73.13